Terminal Aerodrome Forecast
Issued by NWS

Home | Current Version | Previous Version | Text Only | Print | Product List | Glossary On
Versions: 1 2 3 4 5 6 7 8 9 10 11 12 13 14 15 16 17 18 19 20 21 22 23 24 25 26 27
000
FTUS45 KLKN 020158 AAA
TAFTPH
TAF AMD
KTPH 020158Z 0202/0224 30009KT P6SM OVC200
     FM020600 34015G25KT P6SM SCT120
     FM021200 33025G35KT P6SM SKC
     FM022100 34015G25KT P6SM SKC=

USA.gov is the U.S. government's official web portal to all federal, state and local government web resources and services.